LGKO/KGS METAR and TAF weather

Enter ICAO airport designator
Station Type Date Time Source
LGKO METAR 2020/09/20 09:50 UTC NOAA

LGKO 200950Z 36014KT 9999 FEW020 27/17 Q1010


Station Type Date Time Source
LGKO Decoded METAR 2020/09/20 09:50 UTC NOAA

Kos Airport , Greece (LGKO) 36-47N 027-04E
Sep 20, 2020 - 05:50 AM EDT / 2020.09.20 0950 UTC
Wind: from the N (360 degrees) at 16 MPH (14 KT):0
Visibility: greater than 7 mile(s):0
Sky conditions: mostly clear
Temperature: 80 F (27 C)
Dew Point: 62 F (17 C)
Relative Humidity: 54%
Pressure (altimeter): 29.83 in. Hg (1010 hPa)
ob: LGKO 200950Z 36014KT 9999 FEW020 27/17 Q1010
cycle: 10

Station Type Date Time Source
LGKO TAF 2020/09/20 06:14 UTC NOAA

TAF LGKO 200500Z 2006/2106 33015KT 9999 FEW020 SCT030
TEMPO 2010/2016 33017G27KT

Example: see airport list